sensor_id;sensor_type;location;lat;lon;timestamp;P1;durP1;ratioP1;P2;durP2;ratioP2
34836;SDS011;21053;50.848;4.652;2023-01-29T00:00:07;69.57;;;29.67;;
34836;SDS011;21053;50.848;4.652;2023-01-29T00:05:06;71.00;;;30.48;;
34836;SDS011;21053;50.848;4.652;2023-01-29T00:07:35;77.55;;;32.10;;
34836;SDS011;21053;50.848;4.652;2023-01-29T00:12:31;75.35;;;30.77;;
34836;SDS011;21053;50.848;4.652;2023-01-29T00:17:26;72.63;;;31.92;;
34836;SDS011;21053;50.848;4.652;2023-01-29T00:19:53;76.32;;;30.95;;
34836;SDS011;21053;50.848;4.652;2023-01-29T00:22:20;70.97;;;31.45;;
34836;SDS011;21053;50.848;4.652;2023-01-29T00:24:49;81.57;;;30.33;;
34836;SDS011;21053;50.848;4.652;2023-01-29T00:27:14;69.18;;;30.10;;
34836;SDS011;21053;50.848;4.652;2023-01-29T00:29:40;82.15;;;32.80;;
34836;SDS011;21053;50.848;4.652;2023-01-29T00:32:06;79.60;;;34.10;;
34836;SDS011;21053;50.848;4.652;2023-01-29T00:34:33;80.70;;;32.13;;
34836;SDS011;21053;50.848;4.652;2023-01-29T00:37:01;76.60;;;32.13;;
34836;SDS011;21053;50.848;4.652;2023-01-29T00:42:08;77.75;;;32.22;;
34836;SDS011;21053;50.848;4.652;2023-01-29T00:44:53;73.90;;;30.45;;
34836;SDS011;21053;50.848;4.652;2023-01-29T00:47:22;75.07;;;30.48;;
34836;SDS011;21053;50.848;4.652;2023-01-29T00:49:54;67.45;;;29.38;;
34836;SDS011;21053;50.848;4.652;2023-01-29T00:52:20;68.32;;;29.40;;
34836;SDS011;21053;50.848;4.652;2023-01-29T00:54:56;65.72;;;29.05;;
34836;SDS011;21053;50.848;4.652;2023-01-29T00:57:26;71.82;;;31.02;;
34836;SDS011;21053;50.848;4.652;2023-01-29T00:59:55;76.57;;;30.58;;
34836;SDS011;21053;50.848;4.652;2023-01-29T01:02:23;79.18;;;31.90;;
34836;SDS011;21053;50.848;4.652;2023-01-29T01:05:09;81.25;;;31.48;;
34836;SDS011;21053;50.848;4.652;2023-01-29T01:07:50;74.53;;;32.13;;
34836;SDS011;21053;50.848;4.652;2023-01-29T01:10:20;70.38;;;29.98;;
34836;SDS011;21053;50.848;4.652;2023-01-29T01:15:23;71.03;;;29.77;;
34836;SDS011;21053;50.848;4.652;2023-01-29T01:17:55;74.28;;;30.10;;
34836;SDS011;21053;50.848;4.652;2023-01-29T01:20:28;66.97;;;29.25;;
34836;SDS011;21053;50.848;4.652;2023-01-29T01:22:57;65.25;;;28.52;;
34836;SDS011;21053;50.848;4.652;2023-01-29T01:25:26;69.20;;;29.63;;
34836;SDS011;21053;50.848;4.652;2023-01-29T01:27:55;72.10;;;30.75;;
34836;SDS011;21053;50.848;4.652;2023-01-29T01:30:26;76.97;;;31.83;;
34836;SDS011;21053;50.848;4.652;2023-01-29T01:32:53;80.47;;;30.73;;
34836;SDS011;21053;50.848;4.652;2023-01-29T01:35:19;74.13;;;31.45;;
34836;SDS011;21053;50.848;4.652;2023-01-29T01:37:51;77.88;;;32.08;;
34836;SDS011;21053;50.848;4.652;2023-01-29T01:40:18;79.25;;;32.20;;
34836;SDS011;21053;50.848;4.652;2023-01-29T01:42:54;77.63;;;33.22;;
34836;SDS011;21053;50.848;4.652;2023-01-29T01:45:32;81.78;;;32.00;;
34836;SDS011;21053;50.848;4.652;2023-01-29T01:48:06;73.07;;;31.05;;
34836;SDS011;21053;50.848;4.652;2023-01-29T01:50:41;77.55;;;32.42;;
34836;SDS011;21053;50.848;4.652;2023-01-29T01:53:18;79.18;;;34.08;;
34836;SDS011;21053;50.848;4.652;2023-01-29T01:55:51;84.65;;;33.90;;
34836;SDS011;21053;50.848;4.652;2023-01-29T02:01:12;83.22;;;34.50;;
34836;SDS011;21053;50.848;4.652;2023-01-29T02:04:00;77.13;;;34.08;;
34836;SDS011;21053;50.848;4.652;2023-01-29T02:06:56;79.35;;;33.67;;
34836;SDS011;21053;50.848;4.652;2023-01-29T02:09:50;82.78;;;33.60;;
34836;SDS011;21053;50.848;4.652;2023-01-29T02:12:19;86.53;;;35.72;;
34836;SDS011;21053;50.848;4.652;2023-01-29T02:17:18;89.85;;;37.17;;
34836;SDS011;21053;50.848;4.652;2023-01-29T02:28:46;89.75;;;37.00;;
34836;SDS011;21053;50.848;4.652;2023-01-29T02:46:45;96.63;;;36.65;;
34836;SDS011;21053;50.848;4.652;2023-01-29T02:52:02;86.45;;;34.95;;
34836;SDS011;21053;50.848;4.652;2023-01-29T02:54:53;86.55;;;35.78;;
34836;SDS011;21053;50.848;4.652;2023-01-29T02:59:55;87.72;;;34.65;;
34836;SDS011;21053;50.848;4.652;2023-01-29T03:08:40;91.70;;;37.03;;
34836;SDS011;21053;50.848;4.652;2023-01-29T03:11:13;83.22;;;35.35;;
34836;SDS011;21053;50.848;4.652;2023-01-29T03:14:01;88.97;;;36.60;;
34836;SDS011;21053;50.848;4.652;2023-01-29T03:16:49;103.63;;;38.40;;
34836;SDS011;21053;50.848;4.652;2023-01-29T03:19:31;89.35;;;37.30;;
34836;SDS011;21053;50.848;4.652;2023-01-29T03:22:10;93.00;;;37.40;;
34836;SDS011;21053;50.848;4.652;2023-01-29T03:27:42;93.15;;;38.92;;
34836;SDS011;21053;50.848;4.652;2023-01-29T03:33:21;102.25;;;40.50;;
34836;SDS011;21053;50.848;4.652;2023-01-29T03:35:53;98.88;;;40.17;;
34836;SDS011;21053;50.848;4.652;2023-01-29T03:38:24;99.93;;;40.13;;
34836;SDS011;21053;50.848;4.652;2023-01-29T03:40:57;97.97;;;40.78;;
34836;SDS011;21053;50.848;4.652;2023-01-29T03:46:13;96.15;;;39.28;;
34836;SDS011;21053;50.848;4.652;2023-01-29T03:49:10;102.05;;;39.53;;
34836;SDS011;21053;50.848;4.652;2023-01-29T03:52:00;92.97;;;37.90;;
34836;SDS011;21053;50.848;4.652;2023-01-29T04:02:37;83.35;;;36.97;;
34836;SDS011;21053;50.848;4.652;2023-01-29T04:05:20;91.53;;;37.40;;
34836;SDS011;21053;50.848;4.652;2023-01-29T04:07:50;93.03;;;37.83;;
34836;SDS011;21053;50.848;4.652;2023-01-29T04:10:21;90.85;;;38.90;;
34836;SDS011;21053;50.848;4.652;2023-01-29T04:13:04;91.40;;;37.25;;
34836;SDS011;21053;50.848;4.652;2023-01-29T04:15:39;95.25;;;37.67;;
34836;SDS011;21053;50.848;4.652;2023-01-29T04:18:10;95.10;;;39.00;;
34836;SDS011;21053;50.848;4.652;2023-01-29T04:20:36;93.95;;;37.45;;
34836;SDS011;21053;50.848;4.652;2023-01-29T04:23:05;98.93;;;39.17;;
34836;SDS011;21053;50.848;4.652;2023-01-29T04:25:37;90.30;;;37.85;;
34836;SDS011;21053;50.848;4.652;2023-01-29T04:28:19;92.28;;;38.55;;
34836;SDS011;21053;50.848;4.652;2023-01-29T04:33:36;92.82;;;38.67;;
34836;SDS011;21053;50.848;4.652;2023-01-29T04:41:57;91.93;;;38.83;;
34836;SDS011;21053;50.848;4.652;2023-01-29T04:44:53;96.38;;;37.92;;
34836;SDS011;21053;50.848;4.652;2023-01-29T04:50:27;94.47;;;38.88;;
34836;SDS011;21053;50.848;4.652;2023-01-29T04:55:57;92.50;;;38.40;;
34836;SDS011;21053;50.848;4.652;2023-01-29T04:58:46;98.10;;;37.40;;
34836;SDS011;21053;50.848;4.652;2023-01-29T05:01:22;98.40;;;38.45;;
34836;SDS011;21053;50.848;4.652;2023-01-29T05:03:55;89.25;;;38.22;;
34836;SDS011;21053;50.848;4.652;2023-01-29T05:06:25;96.70;;;40.17;;
34836;SDS011;21053;50.848;4.652;2023-01-29T05:08:54;101.03;;;38.83;;
34836;SDS011;21053;50.848;4.652;2023-01-29T05:11:23;101.38;;;39.25;;
34836;SDS011;21053;50.848;4.652;2023-01-29T05:13:52;96.60;;;39.35;;
34836;SDS011;21053;50.848;4.652;2023-01-29T05:18:59;89.47;;;40.10;;
34836;SDS011;21053;50.848;4.652;2023-01-29T05:29:29;104.72;;;41.15;;
34836;SDS011;21053;50.848;4.652;2023-01-29T05:31:57;98.03;;;39.22;;
34836;SDS011;21053;50.848;4.652;2023-01-29T05:34:26;90.47;;;39.22;;
34836;SDS011;21053;50.848;4.652;2023-01-29T05:36:53;96.82;;;39.67;;
34836;SDS011;21053;50.848;4.652;2023-01-29T05:39:21;95.95;;;39.30;;
34836;SDS011;21053;50.848;4.652;2023-01-29T05:46:46;92.65;;;37.67;;
34836;SDS011;21053;50.848;4.652;2023-01-29T05:49:13;97.75;;;39.13;;
34836;SDS011;21053;50.848;4.652;2023-01-29T05:51:43;100.35;;;40.03;;
34836;SDS011;21053;50.848;4.652;2023-01-29T05:54:12;95.15;;;39.33;;
34836;SDS011;21053;50.848;4.652;2023-01-29T05:56:41;93.22;;;38.65;;
34836;SDS011;21053;50.848;4.652;2023-01-29T05:59:08;88.18;;;37.08;;
34836;SDS011;21053;50.848;4.652;2023-01-29T06:04:04;101.55;;;37.50;;
34836;SDS011;21053;50.848;4.652;2023-01-29T06:06:31;95.90;;;38.22;;
34836;SDS011;21053;50.848;4.652;2023-01-29T06:08:58;95.43;;;38.65;;
34836;SDS011;21053;50.848;4.652;2023-01-29T06:13:54;89.70;;;37.90;;
34836;SDS011;21053;50.848;4.652;2023-01-29T06:16:22;98.57;;;37.50;;
34836;SDS011;21053;50.848;4.652;2023-01-29T06:18:49;92.07;;;37.20;;
34836;SDS011;21053;50.848;4.652;2023-01-29T06:21:16;101.10;;;38.60;;
34836;SDS011;21053;50.848;4.652;2023-01-29T06:23:42;92.10;;;37.90;;
34836;SDS011;21053;50.848;4.652;2023-01-29T06:26:12;92.28;;;36.08;;
34836;SDS011;21053;50.848;4.652;2023-01-29T06:28:39;94.68;;;37.08;;
34836;SDS011;21053;50.848;4.652;2023-01-29T06:31:05;96.75;;;37.88;;
34836;SDS011;21053;50.848;4.652;2023-01-29T06:33:33;102.68;;;38.05;;
34836;SDS011;21053;50.848;4.652;2023-01-29T06:36:02;87.25;;;36.58;;
34836;SDS011;21053;50.848;4.652;2023-01-29T06:38:31;97.40;;;37.85;;
34836;SDS011;21053;50.848;4.652;2023-01-29T06:40:58;96.85;;;37.80;;
34836;SDS011;21053;50.848;4.652;2023-01-29T06:43:24;93.80;;;36.40;;
34836;SDS011;21053;50.848;4.652;2023-01-29T06:45:54;89.90;;;37.72;;
34836;SDS011;21053;50.848;4.652;2023-01-29T06:50:50;95.50;;;36.50;;
34836;SDS011;21053;50.848;4.652;2023-01-29T06:53:20;100.75;;;36.03;;
34836;SDS011;21053;50.848;4.652;2023-01-29T06:55:52;99.47;;;37.50;;
34836;SDS011;21053;50.848;4.652;2023-01-29T06:58:18;96.22;;;37.35;;
34836;SDS011;21053;50.848;4.652;2023-01-29T07:00:46;202.93;;;41.22;;
34836;SDS011;21053;50.848;4.652;2023-01-29T07:03:18;94.97;;;36.90;;
34836;SDS011;21053;50.848;4.652;2023-01-29T07:05:51;101.10;;;39.08;;
34836;SDS011;21053;50.848;4.652;2023-01-29T07:08:18;95.85;;;37.15;;
34836;SDS011;21053;50.848;4.652;2023-01-29T07:10:46;100.18;;;36.17;;
34836;SDS011;21053;50.848;4.652;2023-01-29T07:13:13;96.97;;;37.92;;
34836;SDS011;21053;50.848;4.652;2023-01-29T07:15:42;94.55;;;36.90;;
34836;SDS011;21053;50.848;4.652;2023-01-29T07:18:09;88.18;;;36.17;;
34836;SDS011;21053;50.848;4.652;2023-01-29T07:20:38;91.97;;;36.20;;
34836;SDS011;21053;50.848;4.652;2023-01-29T07:23:10;90.82;;;37.80;;
34836;SDS011;21053;50.848;4.652;2023-01-29T07:25:37;99.47;;;37.75;;
34836;SDS011;21053;50.848;4.652;2023-01-29T07:28:04;109.85;;;36.35;;
34836;SDS011;21053;50.848;4.652;2023-01-29T07:30:32;105.03;;;38.78;;
34836;SDS011;21053;50.848;4.652;2023-01-29T07:33:04;96.38;;;38.35;;
34836;SDS011;21053;50.848;4.652;2023-01-29T07:35:31;100.32;;;39.47;;
34836;SDS011;21053;50.848;4.652;2023-01-29T07:38:03;99.05;;;37.03;;
34836;SDS011;21053;50.848;4.652;2023-01-29T07:40:28;96.25;;;36.15;;
34836;SDS011;21053;50.848;4.652;2023-01-29T07:44:03;103.00;;;37.55;;
34836;SDS011;21053;50.848;4.652;2023-01-29T07:46:29;96.63;;;37.53;;
34836;SDS011;21053;50.848;4.652;2023-01-29T07:48:56;96.40;;;37.90;;
34836;SDS011;21053;50.848;4.652;2023-01-29T07:51:23;97.60;;;38.47;;
34836;SDS011;21053;50.848;4.652;2023-01-29T07:53:49;100.90;;;37.53;;
34836;SDS011;21053;50.848;4.652;2023-01-29T07:56:16;100.57;;;38.53;;
34836;SDS011;21053;50.848;4.652;2023-01-29T07:58:43;97.57;;;38.10;;
34836;SDS011;21053;50.848;4.652;2023-01-29T08:01:09;106.53;;;38.92;;
34836;SDS011;21053;50.848;4.652;2023-01-29T08:03:37;98.15;;;38.42;;
34836;SDS011;21053;50.848;4.652;2023-01-29T08:06:03;114.07;;;44.63;;
34836;SDS011;21053;50.848;4.652;2023-01-29T08:08:31;166.02;;;43.60;;
34836;SDS011;21053;50.848;4.652;2023-01-29T08:11:01;102.50;;;39.38;;
34836;SDS011;21053;50.848;4.652;2023-01-29T08:13:29;105.40;;;40.35;;
34836;SDS011;21053;50.848;4.652;2023-01-29T08:15:59;109.07;;;41.28;;
34836;SDS011;21053;50.848;4.652;2023-01-29T08:18:29;110.85;;;42.03;;
34836;SDS011;21053;50.848;4.652;2023-01-29T08:21:02;109.47;;;40.22;;
34836;SDS011;21053;50.848;4.652;2023-01-29T08:23:28;112.30;;;41.70;;
34836;SDS011;21053;50.848;4.652;2023-01-29T08:25:56;115.45;;;41.05;;
34836;SDS011;21053;50.848;4.652;2023-01-29T08:28:22;113.75;;;41.63;;
34836;SDS011;21053;50.848;4.652;2023-01-29T08:30:49;114.20;;;41.08;;
34836;SDS011;21053;50.848;4.652;2023-01-29T08:33:15;107.57;;;41.53;;
34836;SDS011;21053;50.848;4.652;2023-01-29T08:35:42;111.35;;;42.60;;
34836;SDS011;21053;50.848;4.652;2023-01-29T08:38:08;113.28;;;42.08;;
34836;SDS011;21053;50.848;4.652;2023-01-29T08:40:34;117.10;;;41.30;;
34836;SDS011;21053;50.848;4.652;2023-01-29T08:43:03;120.20;;;43.17;;
34836;SDS011;21053;50.848;4.652;2023-01-29T08:45:39;126.35;;;43.75;;
34836;SDS011;21053;50.848;4.652;2023-01-29T08:50:34;107.40;;;39.53;;
34836;SDS011;21053;50.848;4.652;2023-01-29T08:53:02;112.88;;;43.13;;
34836;SDS011;21053;50.848;4.652;2023-01-29T08:55:31;129.98;;;46.17;;
34836;SDS011;21053;50.848;4.652;2023-01-29T08:58:02;127.47;;;44.78;;
34836;SDS011;21053;50.848;4.652;2023-01-29T09:00:31;123.60;;;46.80;;
34836;SDS011;21053;50.848;4.652;2023-01-29T09:02:58;119.75;;;44.00;;
34836;SDS011;21053;50.848;4.652;2023-01-29T09:05:27;121.78;;;44.60;;
34836;SDS011;21053;50.848;4.652;2023-01-29T09:07:53;116.53;;;44.55;;
34836;SDS011;21053;50.848;4.652;2023-01-29T09:10:22;121.47;;;43.00;;
34836;SDS011;21053;50.848;4.652;2023-01-29T09:12:49;124.38;;;44.17;;
34836;SDS011;21053;50.848;4.652;2023-01-29T09:15:18;129.25;;;46.45;;
34836;SDS011;21053;50.848;4.652;2023-01-29T09:17:46;118.15;;;44.50;;
34836;SDS011;21053;50.848;4.652;2023-01-29T09:20:13;123.32;;;44.22;;
34836;SDS011;21053;50.848;4.652;2023-01-29T09:22:39;121.25;;;44.60;;
34836;SDS011;21053;50.848;4.652;2023-01-29T09:25:06;123.60;;;45.45;;
34836;SDS011;21053;50.848;4.652;2023-01-29T09:27:34;111.07;;;42.17;;
34836;SDS011;21053;50.848;4.652;2023-01-29T09:30:00;119.88;;;44.55;;
34836;SDS011;21053;50.848;4.652;2023-01-29T09:32:27;107.22;;;42.30;;
34836;SDS011;21053;50.848;4.652;2023-01-29T09:36:40;114.97;;;43.58;;
34836;SDS011;21053;50.848;4.652;2023-01-29T09:39:08;115.40;;;42.97;;
34836;SDS011;21053;50.848;4.652;2023-01-29T09:41:46;104.60;;;41.67;;
34836;SDS011;21053;50.848;4.652;2023-01-29T09:47:13;130.00;;;44.25;;
34836;SDS011;21053;50.848;4.652;2023-01-29T09:49:42;119.40;;;44.70;;
34836;SDS011;21053;50.848;4.652;2023-01-29T09:57:13;112.53;;;43.58;;
34836;SDS011;21053;50.848;4.652;2023-01-29T09:59:44;117.05;;;43.42;;
34836;SDS011;21053;50.848;4.652;2023-01-29T10:02:18;124.32;;;45.50;;
34836;SDS011;21053;50.848;4.652;2023-01-29T10:14:14;113.05;;;39.42;;
34836;SDS011;21053;50.848;4.652;2023-01-29T10:24:59;108.63;;;39.97;;
34836;SDS011;21053;50.848;4.652;2023-01-29T10:30:18;108.13;;;41.00;;
34836;SDS011;21053;50.848;4.652;2023-01-29T10:33:11;114.72;;;42.17;;
34836;SDS011;21053;50.848;4.652;2023-01-29T10:35:46;114.93;;;42.28;;
34836;SDS011;21053;50.848;4.652;2023-01-29T10:44:05;102.95;;;39.42;;
34836;SDS011;21053;50.848;4.652;2023-01-29T10:50:07;103.53;;;39.28;;
34836;SDS011;21053;50.848;4.652;2023-01-29T10:55:29;103.18;;;39.15;;
34836;SDS011;21053;50.848;4.652;2023-01-29T11:00:44;104.85;;;41.17;;
34836;SDS011;21053;50.848;4.652;2023-01-29T11:03:25;101.07;;;39.80;;
34836;SDS011;21053;50.848;4.652;2023-01-29T11:09:10;98.70;;;38.53;;
34836;SDS011;21053;50.848;4.652;2023-01-29T11:11:57;99.72;;;39.58;;
34836;SDS011;21053;50.848;4.652;2023-01-29T11:19:47;92.65;;;37.30;;
34836;SDS011;21053;50.848;4.652;2023-01-29T11:22:20;97.78;;;38.35;;
34836;SDS011;21053;50.848;4.652;2023-01-29T11:30:38;90.35;;;37.30;;
34836;SDS011;21053;50.848;4.652;2023-01-29T11:33:08;98.93;;;39.65;;
34836;SDS011;21053;50.848;4.652;2023-01-29T11:35:43;90.57;;;36.72;;
34836;SDS011;21053;50.848;4.652;2023-01-29T11:38:20;93.40;;;37.03;;
34836;SDS011;21053;50.848;4.652;2023-01-29T11:40:51;93.47;;;37.28;;
34836;SDS011;21053;50.848;4.652;2023-01-29T11:43:29;87.57;;;35.42;;
34836;SDS011;21053;50.848;4.652;2023-01-29T11:46:05;92.75;;;37.20;;
34836;SDS011;21053;50.848;4.652;2023-01-29T11:50:35;89.05;;;35.90;;
34836;SDS011;21053;50.848;4.652;2023-01-29T11:53:02;90.85;;;36.17;;
34836;SDS011;21053;50.848;4.652;2023-01-29T12:00:48;86.57;;;34.42;;
34836;SDS011;21053;50.848;4.652;2023-01-29T12:08:38;79.32;;;34.03;;
34836;SDS011;21053;50.848;4.652;2023-01-29T12:11:14;73.93;;;31.48;;
34836;SDS011;21053;50.848;4.652;2023-01-29T12:14:00;80.53;;;32.17;;
34836;SDS011;21053;50.848;4.652;2023-01-29T12:24:55;68.05;;;28.75;;
34836;SDS011;21053;50.848;4.652;2023-01-29T12:27:29;72.43;;;30.23;;
34836;SDS011;21053;50.848;4.652;2023-01-29T12:33:02;70.68;;;29.70;;
34836;SDS011;21053;50.848;4.652;2023-01-29T12:35:41;71.93;;;28.05;;
34836;SDS011;21053;50.848;4.652;2023-01-29T12:40:44;66.13;;;26.35;;
34836;SDS011;21053;50.848;4.652;2023-01-29T12:43:36;64.80;;;27.02;;
34836;SDS011;21053;50.848;4.652;2023-01-29T12:48:41;57.25;;;25.48;;
34836;SDS011;21053;50.848;4.652;2023-01-29T12:51:15;63.15;;;26.35;;
34836;SDS011;21053;50.848;4.652;2023-01-29T12:56:54;61.92;;;25.17;;
34836;SDS011;21053;50.848;4.652;2023-01-29T12:59:27;57.33;;;23.88;;
34836;SDS011;21053;50.848;4.652;2023-01-29T13:04:45;51.53;;;23.10;;
34836;SDS011;21053;50.848;4.652;2023-01-29T13:07:37;51.67;;;21.73;;
34836;SDS011;21053;50.848;4.652;2023-01-29T13:10:10;49.05;;;21.45;;
34836;SDS011;21053;50.848;4.652;2023-01-29T13:12:40;48.00;;;20.80;;
34836;SDS011;21053;50.848;4.652;2023-01-29T13:15:29;43.17;;;19.48;;
34836;SDS011;21053;50.848;4.652;2023-01-29T13:21:05;47.75;;;19.73;;
34836;SDS011;21053;50.848;4.652;2023-01-29T13:23:48;45.75;;;19.55;;
34836;SDS011;21053;50.848;4.652;2023-01-29T13:26:20;46.65;;;20.27;;
34836;SDS011;21053;50.848;4.652;2023-01-29T13:28:50;39.97;;;19.23;;
34836;SDS011;21053;50.848;4.652;2023-01-29T13:36:47;37.35;;;16.95;;
34836;SDS011;21053;50.848;4.652;2023-01-29T13:39:28;33.80;;;16.10;;
34836;SDS011;21053;50.848;4.652;2023-01-29T13:41:58;40.25;;;16.67;;
34836;SDS011;21053;50.848;4.652;2023-01-29T13:46:54;36.20;;;16.30;;
34836;SDS011;21053;50.848;4.652;2023-01-29T13:49:26;30.83;;;15.63;;
34836;SDS011;21053;50.848;4.652;2023-01-29T13:52:25;38.42;;;16.25;;
34836;SDS011;21053;50.848;4.652;2023-01-29T13:55:02;32.05;;;15.30;;
34836;SDS011;21053;50.848;4.652;2023-01-29T13:57:52;34.83;;;15.68;;
34836;SDS011;21053;50.848;4.652;2023-01-29T14:07:46;43.00;;;15.27;;
34836;SDS011;21053;50.848;4.652;2023-01-29T14:10:21;38.47;;;14.82;;
34836;SDS011;21053;50.848;4.652;2023-01-29T14:13:45;34.13;;;14.93;;
34836;SDS011;21053;50.848;4.652;2023-01-29T14:18:47;26.08;;;13.68;;
34836;SDS011;21053;50.848;4.652;2023-01-29T14:21:20;29.67;;;14.50;;
34836;SDS011;21053;50.848;4.652;2023-01-29T14:23:53;36.72;;;14.57;;
34836;SDS011;21053;50.848;4.652;2023-01-29T14:26:44;28.50;;;14.95;;
34836;SDS011;21053;50.848;4.652;2023-01-29T14:31:41;30.98;;;15.60;;
34836;SDS011;21053;50.848;4.652;2023-01-29T14:36:45;40.08;;;15.98;;
34836;SDS011;21053;50.848;4.652;2023-01-29T14:39:22;33.60;;;16.48;;
34836;SDS011;21053;50.848;4.652;2023-01-29T14:41:55;56.85;;;20.83;;
34836;SDS011;21053;50.848;4.652;2023-01-29T14:52:02;44.33;;;18.83;;
34836;SDS011;21053;50.848;4.652;2023-01-29T14:54:29;36.50;;;17.48;;
34836;SDS011;21053;50.848;4.652;2023-01-29T14:56:59;43.30;;;19.10;;
34836;SDS011;21053;50.848;4.652;2023-01-29T14:59:35;40.05;;;18.90;;
34836;SDS011;21053;50.848;4.652;2023-01-29T15:05:02;44.67;;;18.85;;
34836;SDS011;21053;50.848;4.652;2023-01-29T15:07:40;45.88;;;18.17;;
34836;SDS011;21053;50.848;4.652;2023-01-29T15:10:16;39.90;;;19.08;;
34836;SDS011;21053;50.848;4.652;2023-01-29T15:21:01;43.00;;;19.50;;
34836;SDS011;21053;50.848;4.652;2023-01-29T15:23:41;45.67;;;20.02;;
34836;SDS011;21053;50.848;4.652;2023-01-29T15:26:12;42.08;;;19.05;;
34836;SDS011;21053;50.848;4.652;2023-01-29T15:28:58;45.25;;;19.27;;
34836;SDS011;21053;50.848;4.652;2023-01-29T15:31:28;38.08;;;18.50;;
34836;SDS011;21053;50.848;4.652;2023-01-29T15:36:30;44.80;;;19.95;;
34836;SDS011;21053;50.848;4.652;2023-01-29T15:41:37;43.67;;;19.13;;
34836;SDS011;21053;50.848;4.652;2023-01-29T15:44:03;44.05;;;19.42;;
34836;SDS011;21053;50.848;4.652;2023-01-29T15:46:38;44.50;;;19.35;;
34836;SDS011;21053;50.848;4.652;2023-01-29T15:49:15;43.47;;;19.83;;
34836;SDS011;21053;50.848;4.652;2023-01-29T15:52:19;48.90;;;20.40;;
34836;SDS011;21053;50.848;4.652;2023-01-29T15:54:49;50.15;;;19.38;;
34836;SDS011;21053;50.848;4.652;2023-01-29T15:57:20;42.38;;;19.20;;
34836;SDS011;21053;50.848;4.652;2023-01-29T15:59:56;44.55;;;20.73;;
34836;SDS011;21053;50.848;4.652;2023-01-29T16:04:55;45.95;;;19.30;;
34836;SDS011;21053;50.848;4.652;2023-01-29T16:07:22;44.67;;;20.55;;
34836;SDS011;21053;50.848;4.652;2023-01-29T16:12:19;46.00;;;20.60;;
34836;SDS011;21053;50.848;4.652;2023-01-29T16:14:48;49.65;;;21.73;;
34836;SDS011;21053;50.848;4.652;2023-01-29T16:17:26;49.65;;;21.38;;
34836;SDS011;21053;50.848;4.652;2023-01-29T16:20:00;46.03;;;21.52;;
34836;SDS011;21053;50.848;4.652;2023-01-29T16:22:33;48.33;;;22.38;;
34836;SDS011;21053;50.848;4.652;2023-01-29T16:25:04;49.97;;;21.42;;
34836;SDS011;21053;50.848;4.652;2023-01-29T16:27:38;50.53;;;21.10;;
34836;SDS011;21053;50.848;4.652;2023-01-29T16:30:07;51.88;;;23.05;;
34836;SDS011;21053;50.848;4.652;2023-01-29T16:32:37;55.00;;;22.25;;
34836;SDS011;21053;50.848;4.652;2023-01-29T16:37:41;50.38;;;23.83;;
34836;SDS011;21053;50.848;4.652;2023-01-29T16:40:28;59.13;;;24.40;;
34836;SDS011;21053;50.848;4.652;2023-01-29T16:48:42;56.95;;;23.08;;
34836;SDS011;21053;50.848;4.652;2023-01-29T16:51:14;57.63;;;24.35;;
34836;SDS011;21053;50.848;4.652;2023-01-29T16:56:36;58.30;;;25.05;;
34836;SDS011;21053;50.848;4.652;2023-01-29T16:59:06;65.45;;;25.83;;
34836;SDS011;21053;50.848;4.652;2023-01-29T17:01:53;56.03;;;23.73;;
34836;SDS011;21053;50.848;4.652;2023-01-29T17:04:23;68.32;;;26.17;;
34836;SDS011;21053;50.848;4.652;2023-01-29T17:06:56;64.43;;;25.50;;
34836;SDS011;21053;50.848;4.652;2023-01-29T17:09:33;62.30;;;26.30;;
34836;SDS011;21053;50.848;4.652;2023-01-29T17:14:50;60.17;;;25.00;;
34836;SDS011;21053;50.848;4.652;2023-01-29T17:19:21;70.40;;;27.00;;
34836;SDS011;21053;50.848;4.652;2023-01-29T17:21:52;66.32;;;27.27;;
34836;SDS011;21053;50.848;4.652;2023-01-29T17:26:48;61.50;;;26.65;;
34836;SDS011;21053;50.848;4.652;2023-01-29T17:29:18;66.55;;;26.67;;
34836;SDS011;21053;50.848;4.652;2023-01-29T17:34:17;67.38;;;26.85;;
34836;SDS011;21053;50.848;4.652;2023-01-29T17:39:16;69.78;;;27.58;;
34836;SDS011;21053;50.848;4.652;2023-01-29T17:41:52;65.13;;;27.35;;
34836;SDS011;21053;50.848;4.652;2023-01-29T17:44:19;66.20;;;27.40;;
34836;SDS011;21053;50.848;4.652;2023-01-29T17:46:47;76.63;;;28.95;;
34836;SDS011;21053;50.848;4.652;2023-01-29T17:51:48;67.43;;;29.30;;
34836;SDS011;21053;50.848;4.652;2023-01-29T17:54:15;67.30;;;29.02;;
34836;SDS011;21053;50.848;4.652;2023-01-29T17:56:41;69.32;;;28.50;;
34836;SDS011;21053;50.848;4.652;2023-01-29T17:59:11;67.53;;;29.13;;
34836;SDS011;21053;50.848;4.652;2023-01-29T18:01:42;73.60;;;29.65;;
34836;SDS011;21053;50.848;4.652;2023-01-29T18:07:15;69.63;;;29.65;;
34836;SDS011;21053;50.848;4.652;2023-01-29T18:09:40;70.60;;;29.30;;
34836;SDS011;21053;50.848;4.652;2023-01-29T18:14:55;68.10;;;28.73;;
34836;SDS011;21053;50.848;4.652;2023-01-29T18:19:52;68.53;;;29.83;;
34836;SDS011;21053;50.848;4.652;2023-01-29T18:22:30;71.88;;;29.35;;
34836;SDS011;21053;50.848;4.652;2023-01-29T18:24:58;68.97;;;28.05;;
34836;SDS011;21053;50.848;4.652;2023-01-29T18:27:24;73.18;;;29.60;;
34836;SDS011;21053;50.848;4.652;2023-01-29T18:29:49;70.72;;;29.05;;
34836;SDS011;21053;50.848;4.652;2023-01-29T18:32:16;74.57;;;29.75;;
34836;SDS011;21053;50.848;4.652;2023-01-29T18:34:45;65.68;;;28.70;;
34836;SDS011;21053;50.848;4.652;2023-01-29T18:37:13;68.40;;;29.40;;
34836;SDS011;21053;50.848;4.652;2023-01-29T18:39:41;65.60;;;27.60;;
34836;SDS011;21053;50.848;4.652;2023-01-29T18:42:07;72.60;;;29.60;;
34836;SDS011;21053;50.848;4.652;2023-01-29T18:44:32;80.55;;;31.05;;
34836;SDS011;21053;50.848;4.652;2023-01-29T18:46:58;71.45;;;31.25;;
34836;SDS011;21053;50.848;4.652;2023-01-29T18:49:24;74.43;;;29.58;;
34836;SDS011;21053;50.848;4.652;2023-01-29T18:51:49;71.78;;;30.23;;
34836;SDS011;21053;50.848;4.652;2023-01-29T18:54:15;74.03;;;29.30;;
34836;SDS011;21053;50.848;4.652;2023-01-29T18:56:42;72.53;;;29.85;;
34836;SDS011;21053;50.848;4.652;2023-01-29T18:59:11;71.07;;;29.67;;
34836;SDS011;21053;50.848;4.652;2023-01-29T19:01:47;76.60;;;31.25;;
34836;SDS011;21053;50.848;4.652;2023-01-29T19:04:28;74.53;;;30.08;;
34836;SDS011;21053;50.848;4.652;2023-01-29T19:10:16;73.80;;;32.17;;
34836;SDS011;21053;50.848;4.652;2023-01-29T19:12:46;76.28;;;31.85;;
34836;SDS011;21053;50.848;4.652;2023-01-29T19:15:13;75.15;;;31.08;;
34836;SDS011;21053;50.848;4.652;2023-01-29T19:17:40;84.60;;;32.05;;
34836;SDS011;21053;50.848;4.652;2023-01-29T19:20:05;79.72;;;31.05;;
34836;SDS011;21053;50.848;4.652;2023-01-29T19:22:38;69.65;;;31.38;;
34836;SDS011;21053;50.848;4.652;2023-01-29T19:25:04;79.47;;;31.65;;
34836;SDS011;21053;50.848;4.652;2023-01-29T19:27:30;76.85;;;32.30;;
34836;SDS011;21053;50.848;4.652;2023-01-29T19:29:58;75.88;;;31.00;;
34836;SDS011;21053;50.848;4.652;2023-01-29T19:32:31;71.07;;;31.48;;
34836;SDS011;21053;50.848;4.652;2023-01-29T19:35:03;77.90;;;32.80;;
34836;SDS011;21053;50.848;4.652;2023-01-29T19:37:35;85.43;;;32.45;;
34836;SDS011;21053;50.848;4.652;2023-01-29T19:40:00;80.40;;;31.63;;
34836;SDS011;21053;50.848;4.652;2023-01-29T19:42:26;80.78;;;34.13;;